sensor_id;sensor_type;location;lat;lon;timestamp;P1;durP1;ratioP1;P2;durP2;ratioP2
53062;SDS011;40529;52.172;10.548;2022-10-29T00:00:21;12.30;;;4.88;;
53062;SDS011;40529;52.172;10.548;2022-10-29T00:02:47;13.10;;;5.43;;
53062;SDS011;40529;52.172;10.548;2022-10-29T00:05:13;11.27;;;5.45;;
53062;SDS011;40529;52.172;10.548;2022-10-29T00:07:39;12.43;;;5.43;;
53062;SDS011;40529;52.172;10.548;2022-10-29T00:10:05;13.10;;;5.25;;
53062;SDS011;40529;52.172;10.548;2022-10-29T00:12:32;10.73;;;5.35;;
53062;SDS011;40529;52.172;10.548;2022-10-29T00:14:58;17.23;;;6.05;;
53062;SDS011;40529;52.172;10.548;2022-10-29T00:17:24;12.68;;;5.45;;
53062;SDS011;40529;52.172;10.548;2022-10-29T00:19:50;18.10;;;5.38;;
53062;SDS011;40529;52.172;10.548;2022-10-29T00:22:16;11.65;;;5.78;;
53062;SDS011;40529;52.172;10.548;2022-10-29T00:24:42;15.55;;;5.55;;
53062;SDS011;40529;52.172;10.548;2022-10-29T00:27:08;16.00;;;6.47;;
53062;SDS011;40529;52.172;10.548;2022-10-29T00:29:34;12.93;;;5.78;;
53062;SDS011;40529;52.172;10.548;2022-10-29T00:32:00;12.77;;;6.18;;
53062;SDS011;40529;52.172;10.548;2022-10-29T00:34:26;16.13;;;6.03;;
53062;SDS011;40529;52.172;10.548;2022-10-29T00:36:52;11.10;;;5.38;;
53062;SDS011;40529;52.172;10.548;2022-10-29T00:39:18;17.33;;;6.53;;
53062;SDS011;40529;52.172;10.548;2022-10-29T00:41:44;12.52;;;5.70;;
53062;SDS011;40529;52.172;10.548;2022-10-29T00:46:40;14.25;;;5.43;;
53062;SDS011;40529;52.172;10.548;2022-10-29T00:49:08;13.73;;;5.80;;
53062;SDS011;40529;52.172;10.548;2022-10-29T00:51:34;14.63;;;6.18;;
53062;SDS011;40529;52.172;10.548;2022-10-29T00:54:02;15.10;;;6.30;;
53062;SDS011;40529;52.172;10.548;2022-10-29T00:56:29;12.13;;;5.65;;
53062;SDS011;40529;52.172;10.548;2022-10-29T00:58:55;16.10;;;6.05;;
53062;SDS011;40529;52.172;10.548;2022-10-29T01:01:22;14.75;;;5.82;;
53062;SDS011;40529;52.172;10.548;2022-10-29T01:03:48;15.85;;;6.07;;
53062;SDS011;40529;52.172;10.548;2022-10-29T01:06:14;14.70;;;6.07;;
53062;SDS011;40529;52.172;10.548;2022-10-29T01:08:41;14.32;;;5.25;;
53062;SDS011;40529;52.172;10.548;2022-10-29T01:13:49;14.00;;;5.93;;
53062;SDS011;40529;52.172;10.548;2022-10-29T01:21:51;14.18;;;6.22;;
53062;SDS011;40529;52.172;10.548;2022-10-29T01:31:52;12.10;;;4.70;;
53062;SDS011;40529;52.172;10.548;2022-10-29T01:34:21;20.88;;;6.45;;
53062;SDS011;40529;52.172;10.548;2022-10-29T01:37:04;17.70;;;6.63;;
53062;SDS011;40529;52.172;10.548;2022-10-29T01:39:52;11.85;;;5.95;;
53062;SDS011;40529;52.172;10.548;2022-10-29T01:45:30;13.60;;;5.80;;
53062;SDS011;40529;52.172;10.548;2022-10-29T01:47:50;14.75;;;6.30;;
53062;SDS011;40529;52.172;10.548;2022-10-29T01:50:19;13.05;;;5.97;;
53062;SDS011;40529;52.172;10.548;2022-10-29T01:52:46;16.70;;;6.72;;
53062;SDS011;40529;52.172;10.548;2022-10-29T01:55:20;15.18;;;6.10;;
53062;SDS011;40529;52.172;10.548;2022-10-29T01:57:46;22.65;;;5.57;;
53062;SDS011;40529;52.172;10.548;2022-10-29T02:00:13;15.82;;;6.25;;
53062;SDS011;40529;52.172;10.548;2022-10-29T02:07:56;12.68;;;5.93;;
53062;SDS011;40529;52.172;10.548;2022-10-29T02:10:27;14.20;;;5.53;;
53062;SDS011;40529;52.172;10.548;2022-10-29T02:12:57;13.25;;;5.85;;
53062;SDS011;40529;52.172;10.548;2022-10-29T02:15:34;11.45;;;5.28;;
53062;SDS011;40529;52.172;10.548;2022-10-29T02:18:01;16.27;;;5.65;;
53062;SDS011;40529;52.172;10.548;2022-10-29T02:20:28;15.07;;;5.65;;
53062;SDS011;40529;52.172;10.548;2022-10-29T02:22:54;13.60;;;5.68;;
53062;SDS011;40529;52.172;10.548;2022-10-29T02:25:20;16.40;;;6.47;;
53062;SDS011;40529;52.172;10.548;2022-10-29T02:27:47;12.38;;;5.80;;
53062;SDS011;40529;52.172;10.548;2022-10-29T02:30:13;14.82;;;6.03;;
53062;SDS011;40529;52.172;10.548;2022-10-29T02:32:39;10.73;;;5.07;;
53062;SDS011;40529;52.172;10.548;2022-10-29T02:35:05;13.32;;;5.70;;
53062;SDS011;40529;52.172;10.548;2022-10-29T02:37:31;12.70;;;5.75;;
53062;SDS011;40529;52.172;10.548;2022-10-29T02:39:57;12.02;;;5.97;;
53062;SDS011;40529;52.172;10.548;2022-10-29T02:42:23;14.60;;;5.82;;
53062;SDS011;40529;52.172;10.548;2022-10-29T02:44:50;11.48;;;5.65;;
53062;SDS011;40529;52.172;10.548;2022-10-29T02:47:16;10.93;;;5.68;;
53062;SDS011;40529;52.172;10.548;2022-10-29T02:49:42;14.25;;;5.75;;
53062;SDS011;40529;52.172;10.548;2022-10-29T02:52:08;11.32;;;5.65;;
53062;SDS011;40529;52.172;10.548;2022-10-29T02:54:34;15.45;;;5.90;;
53062;SDS011;40529;52.172;10.548;2022-10-29T02:57:00;12.25;;;5.55;;
53062;SDS011;40529;52.172;10.548;2022-10-29T02:59:26;14.98;;;6.18;;
53062;SDS011;40529;52.172;10.548;2022-10-29T03:01:52;14.95;;;5.90;;
53062;SDS011;40529;52.172;10.548;2022-10-29T03:04:18;16.13;;;5.80;;
53062;SDS011;40529;52.172;10.548;2022-10-29T03:06:44;14.63;;;6.40;;
53062;SDS011;40529;52.172;10.548;2022-10-29T03:09:10;12.38;;;5.60;;
53062;SDS011;40529;52.172;10.548;2022-10-29T03:11:36;14.05;;;6.00;;
53062;SDS011;40529;52.172;10.548;2022-10-29T03:14:02;11.70;;;5.97;;
53062;SDS011;40529;52.172;10.548;2022-10-29T03:16:28;13.80;;;5.95;;
53062;SDS011;40529;52.172;10.548;2022-10-29T03:18:54;16.73;;;5.75;;
53062;SDS011;40529;52.172;10.548;2022-10-29T03:21:20;13.23;;;5.80;;
53062;SDS011;40529;52.172;10.548;2022-10-29T03:23:47;15.57;;;5.25;;
53062;SDS011;40529;52.172;10.548;2022-10-29T03:26:13;16.75;;;5.70;;
53062;SDS011;40529;52.172;10.548;2022-10-29T03:28:39;16.83;;;5.65;;
53062;SDS011;40529;52.172;10.548;2022-10-29T03:31:05;12.30;;;5.35;;
53062;SDS011;40529;52.172;10.548;2022-10-29T03:33:31;14.90;;;6.03;;
53062;SDS011;40529;52.172;10.548;2022-10-29T03:36:01;12.60;;;5.65;;
53062;SDS011;40529;52.172;10.548;2022-10-29T03:38:27;9.93;;;5.32;;
53062;SDS011;40529;52.172;10.548;2022-10-29T03:40:54;12.43;;;5.82;;
53062;SDS011;40529;52.172;10.548;2022-10-29T03:43:20;16.38;;;6.43;;
53062;SDS011;40529;52.172;10.548;2022-10-29T03:45:50;12.35;;;5.55;;
53062;SDS011;40529;52.172;10.548;2022-10-29T03:48:16;14.05;;;5.55;;
53062;SDS011;40529;52.172;10.548;2022-10-29T03:50:42;11.32;;;5.47;;
53062;SDS011;40529;52.172;10.548;2022-10-29T03:53:08;17.45;;;6.88;;
53062;SDS011;40529;52.172;10.548;2022-10-29T03:55:35;15.35;;;7.15;;
53062;SDS011;40529;52.172;10.548;2022-10-29T03:58:01;17.20;;;6.70;;
53062;SDS011;40529;52.172;10.548;2022-10-29T04:00:27;16.48;;;6.60;;
53062;SDS011;40529;52.172;10.548;2022-10-29T04:02:53;15.93;;;6.50;;
53062;SDS011;40529;52.172;10.548;2022-10-29T04:05:19;10.75;;;6.28;;
53062;SDS011;40529;52.172;10.548;2022-10-29T04:07:45;13.85;;;6.50;;
53062;SDS011;40529;52.172;10.548;2022-10-29T04:10:11;11.13;;;6.18;;
53062;SDS011;40529;52.172;10.548;2022-10-29T04:12:37;11.75;;;6.28;;
53062;SDS011;40529;52.172;10.548;2022-10-29T04:15:03;17.45;;;6.55;;
53062;SDS011;40529;52.172;10.548;2022-10-29T04:17:29;18.65;;;7.90;;
53062;SDS011;40529;52.172;10.548;2022-10-29T04:19:55;9.90;;;5.90;;
53062;SDS011;40529;52.172;10.548;2022-10-29T04:22:21;14.32;;;6.35;;
53062;SDS011;40529;52.172;10.548;2022-10-29T04:24:47;13.32;;;6.60;;
53062;SDS011;40529;52.172;10.548;2022-10-29T04:27:14;12.23;;;5.88;;
53062;SDS011;40529;52.172;10.548;2022-10-29T04:29:40;11.40;;;6.68;;
53062;SDS011;40529;52.172;10.548;2022-10-29T04:32:06;13.20;;;6.50;;
53062;SDS011;40529;52.172;10.548;2022-10-29T04:34:32;11.73;;;6.65;;
53062;SDS011;40529;52.172;10.548;2022-10-29T04:36:58;15.32;;;6.93;;
53062;SDS011;40529;52.172;10.548;2022-10-29T04:39:24;12.60;;;6.40;;
53062;SDS011;40529;52.172;10.548;2022-10-29T04:41:50;13.48;;;6.85;;
53062;SDS011;40529;52.172;10.548;2022-10-29T04:44:16;15.85;;;6.85;;
53062;SDS011;40529;52.172;10.548;2022-10-29T04:46:43;12.73;;;6.90;;
53062;SDS011;40529;52.172;10.548;2022-10-29T04:49:10;15.25;;;7.00;;
53062;SDS011;40529;52.172;10.548;2022-10-29T04:51:36;14.38;;;6.95;;
53062;SDS011;40529;52.172;10.548;2022-10-29T04:54:02;17.50;;;6.70;;
53062;SDS011;40529;52.172;10.548;2022-10-29T04:56:28;12.77;;;7.30;;
53062;SDS011;40529;52.172;10.548;2022-10-29T04:58:54;15.82;;;6.47;;
53062;SDS011;40529;52.172;10.548;2022-10-29T05:01:20;19.45;;;7.57;;
53062;SDS011;40529;52.172;10.548;2022-10-29T05:03:46;16.83;;;7.70;;
53062;SDS011;40529;52.172;10.548;2022-10-29T05:06:12;15.40;;;7.78;;
53062;SDS011;40529;52.172;10.548;2022-10-29T05:08:38;15.43;;;7.25;;
53062;SDS011;40529;52.172;10.548;2022-10-29T05:11:05;16.00;;;7.15;;
53062;SDS011;40529;52.172;10.548;2022-10-29T05:13:31;14.20;;;7.03;;
53062;SDS011;40529;52.172;10.548;2022-10-29T05:15:57;17.25;;;7.68;;
53062;SDS011;40529;52.172;10.548;2022-10-29T05:18:23;14.05;;;6.85;;
53062;SDS011;40529;52.172;10.548;2022-10-29T05:20:53;14.73;;;8.32;;
53062;SDS011;40529;52.172;10.548;2022-10-29T05:23:19;16.30;;;7.28;;
53062;SDS011;40529;52.172;10.548;2022-10-29T05:25:45;16.83;;;7.63;;
53062;SDS011;40529;52.172;10.548;2022-10-29T05:28:17;14.27;;;7.35;;
53062;SDS011;40529;52.172;10.548;2022-10-29T05:30:43;16.00;;;6.65;;
53062;SDS011;40529;52.172;10.548;2022-10-29T05:33:10;14.40;;;7.05;;
53062;SDS011;40529;52.172;10.548;2022-10-29T05:35:36;14.32;;;7.18;;
53062;SDS011;40529;52.172;10.548;2022-10-29T05:38:03;22.55;;;8.00;;
53062;SDS011;40529;52.172;10.548;2022-10-29T05:40:29;15.93;;;8.13;;
53062;SDS011;40529;52.172;10.548;2022-10-29T05:42:55;13.60;;;7.40;;
53062;SDS011;40529;52.172;10.548;2022-10-29T05:45:21;19.63;;;8.50;;
53062;SDS011;40529;52.172;10.548;2022-10-29T05:47:47;16.27;;;7.60;;
53062;SDS011;40529;52.172;10.548;2022-10-29T05:50:13;19.65;;;7.25;;
53062;SDS011;40529;52.172;10.548;2022-10-29T05:52:40;15.25;;;7.63;;
53062;SDS011;40529;52.172;10.548;2022-10-29T05:55:06;15.75;;;8.02;;
53062;SDS011;40529;52.172;10.548;2022-10-29T05:57:32;20.33;;;9.23;;
53062;SDS011;40529;52.172;10.548;2022-10-29T05:59:58;16.42;;;8.15;;
53062;SDS011;40529;52.172;10.548;2022-10-29T06:02:24;17.67;;;8.38;;
53062;SDS011;40529;52.172;10.548;2022-10-29T06:04:50;14.48;;;8.27;;
53062;SDS011;40529;52.172;10.548;2022-10-29T06:07:16;16.73;;;8.82;;
53062;SDS011;40529;52.172;10.548;2022-10-29T06:09:42;17.88;;;8.32;;
53062;SDS011;40529;52.172;10.548;2022-10-29T06:12:08;18.08;;;9.32;;
53062;SDS011;40529;52.172;10.548;2022-10-29T06:14:34;22.67;;;8.90;;
53062;SDS011;40529;52.172;10.548;2022-10-29T06:17:00;18.88;;;8.75;;
53062;SDS011;40529;52.172;10.548;2022-10-29T06:19:27;17.85;;;8.88;;
53062;SDS011;40529;52.172;10.548;2022-10-29T06:21:53;19.58;;;8.77;;
53062;SDS011;40529;52.172;10.548;2022-10-29T06:24:19;20.02;;;8.55;;
53062;SDS011;40529;52.172;10.548;2022-10-29T06:26:45;19.27;;;9.35;;
53062;SDS011;40529;52.172;10.548;2022-10-29T06:29:11;18.95;;;9.20;;
53062;SDS011;40529;52.172;10.548;2022-10-29T06:31:37;17.48;;;9.32;;
53062;SDS011;40529;52.172;10.548;2022-10-29T06:34:03;24.42;;;11.70;;
53062;SDS011;40529;52.172;10.548;2022-10-29T06:36:29;24.98;;;10.82;;
53062;SDS011;40529;52.172;10.548;2022-10-29T06:38:55;26.90;;;10.82;;
53062;SDS011;40529;52.172;10.548;2022-10-29T06:41:21;27.63;;;12.00;;
53062;SDS011;40529;52.172;10.548;2022-10-29T06:43:50;26.27;;;11.27;;
53062;SDS011;40529;52.172;10.548;2022-10-29T06:46:16;19.02;;;10.65;;
53062;SDS011;40529;52.172;10.548;2022-10-29T06:48:43;24.63;;;11.38;;
53062;SDS011;40529;52.172;10.548;2022-10-29T06:51:12;20.73;;;11.15;;
53062;SDS011;40529;52.172;10.548;2022-10-29T06:53:38;22.97;;;11.23;;
53062;SDS011;40529;52.172;10.548;2022-10-29T06:56:04;26.42;;;12.65;;
53062;SDS011;40529;52.172;10.548;2022-10-29T06:58:30;22.13;;;12.05;;
53062;SDS011;40529;52.172;10.548;2022-10-29T07:00:58;25.33;;;12.70;;
53062;SDS011;40529;52.172;10.548;2022-10-29T07:03:24;25.40;;;11.70;;
53062;SDS011;40529;52.172;10.548;2022-10-29T07:05:54;26.90;;;11.57;;
53062;SDS011;40529;52.172;10.548;2022-10-29T07:08:21;20.70;;;10.90;;
53062;SDS011;40529;52.172;10.548;2022-10-29T07:10:49;25.15;;;10.63;;
53062;SDS011;40529;52.172;10.548;2022-10-29T07:13:15;21.05;;;9.88;;
53062;SDS011;40529;52.172;10.548;2022-10-29T07:15:41;23.73;;;11.32;;
53062;SDS011;40529;52.172;10.548;2022-10-29T07:18:08;24.55;;;9.70;;
53062;SDS011;40529;52.172;10.548;2022-10-29T07:20:39;22.33;;;9.93;;
53062;SDS011;40529;52.172;10.548;2022-10-29T07:23:06;21.10;;;9.30;;
53062;SDS011;40529;52.172;10.548;2022-10-29T07:25:32;19.65;;;10.35;;
53062;SDS011;40529;52.172;10.548;2022-10-29T07:30:37;20.27;;;10.07;;
53062;SDS011;40529;52.172;10.548;2022-10-29T07:33:03;16.52;;;10.15;;
53062;SDS011;40529;52.172;10.548;2022-10-29T07:35:29;22.00;;;9.63;;
53062;SDS011;40529;52.172;10.548;2022-10-29T07:38:01;22.80;;;9.65;;
53062;SDS011;40529;52.172;10.548;2022-10-29T07:40:27;23.13;;;10.00;;
53062;SDS011;40529;52.172;10.548;2022-10-29T07:42:53;24.85;;;11.18;;
53062;SDS011;40529;52.172;10.548;2022-10-29T07:45:20;23.23;;;10.88;;
53062;SDS011;40529;52.172;10.548;2022-10-29T07:47:46;26.58;;;10.65;;
53062;SDS011;40529;52.172;10.548;2022-10-29T07:50:12;22.35;;;10.68;;
53062;SDS011;40529;52.172;10.548;2022-10-29T07:52:39;24.42;;;10.98;;
53062;SDS011;40529;52.172;10.548;2022-10-29T07:55:05;26.05;;;10.50;;
53062;SDS011;40529;52.172;10.548;2022-10-29T07:57:31;23.60;;;10.38;;
53062;SDS011;40529;52.172;10.548;2022-10-29T07:59:57;20.58;;;9.90;;
53062;SDS011;40529;52.172;10.548;2022-10-29T08:02:24;20.27;;;8.88;;
53062;SDS011;40529;52.172;10.548;2022-10-29T08:04:50;15.73;;;9.25;;
53062;SDS011;40529;52.172;10.548;2022-10-29T08:07:16;21.15;;;8.90;;
53062;SDS011;40529;52.172;10.548;2022-10-29T08:09:42;18.45;;;9.13;;
53062;SDS011;40529;52.172;10.548;2022-10-29T08:12:09;22.73;;;8.82;;
53062;SDS011;40529;52.172;10.548;2022-10-29T08:14:35;15.57;;;8.38;;
53062;SDS011;40529;52.172;10.548;2022-10-29T08:17:01;21.35;;;9.60;;
53062;SDS011;40529;52.172;10.548;2022-10-29T08:19:27;19.00;;;9.68;;
53062;SDS011;40529;52.172;10.548;2022-10-29T08:21:54;22.08;;;9.18;;
53062;SDS011;40529;52.172;10.548;2022-10-29T08:24:20;18.65;;;9.35;;
53062;SDS011;40529;52.172;10.548;2022-10-29T08:26:47;21.65;;;9.60;;
53062;SDS011;40529;52.172;10.548;2022-10-29T08:29:14;20.83;;;9.13;;
53062;SDS011;40529;52.172;10.548;2022-10-29T08:31:40;22.33;;;9.10;;
53062;SDS011;40529;52.172;10.548;2022-10-29T08:34:06;20.38;;;9.43;;
53062;SDS011;40529;52.172;10.548;2022-10-29T08:36:32;18.33;;;8.95;;
53062;SDS011;40529;52.172;10.548;2022-10-29T08:38:58;18.23;;;8.05;;
53062;SDS011;40529;52.172;10.548;2022-10-29T08:49:20;18.50;;;9.10;;
53062;SDS011;40529;52.172;10.548;2022-10-29T08:51:48;22.30;;;10.25;;
53062;SDS011;40529;52.172;10.548;2022-10-29T08:54:15;23.25;;;9.93;;
53062;SDS011;40529;52.172;10.548;2022-10-29T08:56:43;20.45;;;9.35;;
53062;SDS011;40529;52.172;10.548;2022-10-29T08:59:12;20.77;;;8.80;;
53062;SDS011;40529;52.172;10.548;2022-10-29T09:01:39;20.00;;;8.48;;
53062;SDS011;40529;52.172;10.548;2022-10-29T09:17:49;12.47;;;6.93;;
53062;SDS011;40529;52.172;10.548;2022-10-29T09:20:22;26.75;;;9.88;;
53062;SDS011;40529;52.172;10.548;2022-10-29T09:25:21;16.27;;;8.73;;
53062;SDS011;40529;52.172;10.548;2022-10-29T09:30:15;20.85;;;8.80;;
53062;SDS011;40529;52.172;10.548;2022-10-29T09:32:52;18.30;;;7.75;;
53062;SDS011;40529;52.172;10.548;2022-10-29T09:35:21;21.95;;;7.97;;
53062;SDS011;40529;52.172;10.548;2022-10-29T09:37:51;21.25;;;7.35;;
53062;SDS011;40529;52.172;10.548;2022-10-29T09:42:48;20.85;;;7.60;;
53062;SDS011;40529;52.172;10.548;2022-10-29T09:45:16;22.05;;;8.00;;
53062;SDS011;40529;52.172;10.548;2022-10-29T09:50:55;16.05;;;7.32;;
53062;SDS011;40529;52.172;10.548;2022-10-29T09:52:55;25.25;;;8.93;;
53062;SDS011;40529;52.172;10.548;2022-10-29T09:55:26;20.48;;;8.25;;
53062;SDS011;40529;52.172;10.548;2022-10-29T09:57:53;19.33;;;8.30;;
53062;SDS011;40529;52.172;10.548;2022-10-29T10:00:21;15.77;;;7.13;;
53062;SDS011;40529;52.172;10.548;2022-10-29T10:02:53;18.10;;;7.32;;
53062;SDS011;40529;52.172;10.548;2022-10-29T10:05:23;16.63;;;7.82;;
53062;SDS011;40529;52.172;10.548;2022-10-29T10:10:35;17.00;;;8.35;;
53062;SDS011;40529;52.172;10.548;2022-10-29T10:13:02;17.23;;;7.95;;
53062;SDS011;40529;52.172;10.548;2022-10-29T10:15:32;19.05;;;7.45;;
53062;SDS011;40529;52.172;10.548;2022-10-29T10:22:57;18.50;;;6.97;;
53062;SDS011;40529;52.172;10.548;2022-10-29T10:25:30;18.17;;;7.88;;
53062;SDS011;40529;52.172;10.548;2022-10-29T10:27:57;23.30;;;8.23;;
53062;SDS011;40529;52.172;10.548;2022-10-29T10:30:23;20.05;;;8.25;;
53062;SDS011;40529;52.172;10.548;2022-10-29T10:32:50;19.38;;;8.00;;
53062;SDS011;40529;52.172;10.548;2022-10-29T10:35:27;15.65;;;6.72;;
53062;SDS011;40529;52.172;10.548;2022-10-29T10:37:53;20.00;;;7.93;;
53062;SDS011;40529;52.172;10.548;2022-10-29T10:40:21;16.55;;;7.80;;
53062;SDS011;40529;52.172;10.548;2022-10-29T10:42:48;17.52;;;7.47;;
53062;SDS011;40529;52.172;10.548;2022-10-29T10:47:46;18.05;;;8.30;;
53062;SDS011;40529;52.172;10.548;2022-10-29T10:50:23;13.05;;;7.40;;
53062;SDS011;40529;52.172;10.548;2022-10-29T10:52:50;19.35;;;7.32;;
53062;SDS011;40529;52.172;10.548;2022-10-29T10:55:35;16.45;;;6.93;;
53062;SDS011;40529;52.172;10.548;2022-10-29T10:58:10;17.95;;;8.38;;
53062;SDS011;40529;52.172;10.548;2022-10-29T11:01:00;20.70;;;7.93;;
53062;SDS011;40529;52.172;10.548;2022-10-29T11:03:44;17.08;;;8.18;;
53062;SDS011;40529;52.172;10.548;2022-10-29T11:08:42;18.25;;;7.30;;
53062;SDS011;40529;52.172;10.548;2022-10-29T11:11:12;15.80;;;7.38;;
53062;SDS011;40529;52.172;10.548;2022-10-29T11:16:06;20.02;;;7.80;;
53062;SDS011;40529;52.172;10.548;2022-10-29T11:18:41;25.45;;;8.10;;
53062;SDS011;40529;52.172;10.548;2022-10-29T11:21:14;22.38;;;8.02;;
53062;SDS011;40529;52.172;10.548;2022-10-29T11:23:47;22.00;;;8.05;;
53062;SDS011;40529;52.172;10.548;2022-10-29T11:26:18;16.10;;;7.05;;
53062;SDS011;40529;52.172;10.548;2022-10-29T11:32:12;21.60;;;8.55;;
53062;SDS011;40529;52.172;10.548;2022-10-29T11:39:44;17.55;;;8.00;;
53062;SDS011;40529;52.172;10.548;2022-10-29T11:42:12;23.52;;;8.63;;
53062;SDS011;40529;52.172;10.548;2022-10-29T11:44:38;18.10;;;9.68;;
53062;SDS011;40529;52.172;10.548;2022-10-29T12:04:53;15.85;;;6.70;;
53062;SDS011;40529;52.172;10.548;2022-10-29T12:10:15;21.52;;;7.57;;
53062;SDS011;40529;52.172;10.548;2022-10-29T12:12:52;16.88;;;8.00;;
53062;SDS011;40529;52.172;10.548;2022-10-29T12:18:23;20.15;;;8.07;;
53062;SDS011;40529;52.172;10.548;2022-10-29T12:20:48;17.95;;;8.80;;
53062;SDS011;40529;52.172;10.548;2022-10-29T12:23:24;18.17;;;7.90;;
53062;SDS011;40529;52.172;10.548;2022-10-29T12:28:57;16.08;;;7.30;;
53062;SDS011;40529;52.172;10.548;2022-10-29T12:34:06;19.38;;;7.53;;
53062;SDS011;40529;52.172;10.548;2022-10-29T12:36:34;18.08;;;7.68;;
53062;SDS011;40529;52.172;10.548;2022-10-29T12:39:03;12.38;;;6.85;;
53062;SDS011;40529;52.172;10.548;2022-10-29T12:41:32;15.20;;;7.03;;
53062;SDS011;40529;52.172;10.548;2022-10-29T12:44:07;19.20;;;8.13;;
53062;SDS011;40529;52.172;10.548;2022-10-29T12:49:06;16.02;;;7.05;;
53062;SDS011;40529;52.172;10.548;2022-10-29T12:54:14;17.00;;;7.38;;
53062;SDS011;40529;52.172;10.548;2022-10-29T13:01:51;16.00;;;7.18;;
53062;SDS011;40529;52.172;10.548;2022-10-29T13:04:30;16.50;;;7.68;;
53062;SDS011;40529;52.172;10.548;2022-10-29T13:09:24;18.02;;;6.97;;
53062;SDS011;40529;52.172;10.548;2022-10-29T13:11:52;15.15;;;6.57;;
53062;SDS011;40529;52.172;10.548;2022-10-29T13:14:40;16.02;;;6.70;;
53062;SDS011;40529;52.172;10.548;2022-10-29T13:17:06;18.80;;;6.63;;
53062;SDS011;40529;52.172;10.548;2022-10-29T13:19:44;16.58;;;6.05;;
53062;SDS011;40529;52.172;10.548;2022-10-29T13:24:41;16.60;;;6.80;;
53062;SDS011;40529;52.172;10.548;2022-10-29T13:29:44;17.35;;;6.22;;
53062;SDS011;40529;52.172;10.548;2022-10-29T13:34:56;14.82;;;5.53;;
53062;SDS011;40529;52.172;10.548;2022-10-29T13:37:36;16.35;;;4.82;;
53062;SDS011;40529;52.172;10.548;2022-10-29T13:42:59;11.20;;;4.43;;
53062;SDS011;40529;52.172;10.548;2022-10-29T13:45:26;12.48;;;3.72;;
53062;SDS011;40529;52.172;10.548;2022-10-29T13:48:02;14.68;;;4.47;;
53062;SDS011;40529;52.172;10.548;2022-10-29T13:50:30;10.00;;;3.85;;
53062;SDS011;40529;52.172;10.548;2022-10-29T13:52:57;12.95;;;4.43;;
53062;SDS011;40529;52.172;10.548;2022-10-29T13:55:24;9.48;;;4.13;;
53062;SDS011;40529;52.172;10.548;2022-10-29T14:00:25;13.98;;;3.85;;
53062;SDS011;40529;52.172;10.548;2022-10-29T14:03:11;11.32;;;4.00;;
53062;SDS011;40529;52.172;10.548;2022-10-29T14:08:17;12.50;;;4.60;;
53062;SDS011;40529;52.172;10.548;2022-10-29T14:10:47;15.60;;;4.25;;
53062;SDS011;40529;52.172;10.548;2022-10-29T14:15:57;7.40;;;3.78;;
53062;SDS011;40529;52.172;10.548;2022-10-29T14:18:24;13.93;;;4.03;;
53062;SDS011;40529;52.172;10.548;2022-10-29T14:20:54;14.93;;;4.15;;
53062;SDS011;40529;52.172;10.548;2022-10-29T14:23:20;9.38;;;3.85;;
53062;SDS011;40529;52.172;10.548;2022-10-29T14:25:51;14.60;;;4.65;;
53062;SDS011;40529;52.172;10.548;2022-10-29T14:28:24;14.27;;;4.55;;
53062;SDS011;40529;52.172;10.548;2022-10-29T14:31:13;11.18;;;4.22;;
53062;SDS011;40529;52.172;10.548;2022-10-29T14:33:40;11.10;;;4.10;;
53062;SDS011;40529;52.172;10.548;2022-10-29T14:38:37;12.52;;;3.95;;
53062;SDS011;40529;52.172;10.548;2022-10-29T14:41:05;12.57;;;4.70;;
53062;SDS011;40529;52.172;10.548;2022-10-29T14:43:31;9.45;;;4.32;;
53062;SDS011;40529;52.172;10.548;2022-10-29T14:48:51;11.20;;;4.38;;
53062;SDS011;40529;52.172;10.548;2022-10-29T14:51:19;13.98;;;5.07;;
53062;SDS011;40529;52.172;10.548;2022-10-29T14:53:49;9.45;;;3.83;;
53062;SDS011;40529;52.172;10.548;2022-10-29T14:56:17;10.55;;;4.47;;
53062;SDS011;40529;52.172;10.548;2022-10-29T14:58:44;10.25;;;3.80;;
53062;SDS011;40529;52.172;10.548;2022-10-29T15:01:12;11.57;;;4.13;;
53062;SDS011;40529;52.172;10.548;2022-10-29T15:03:38;14.23;;;4.70;;
53062;SDS011;40529;52.172;10.548;2022-10-29T15:06:24;17.98;;;5.07;;
53062;SDS011;40529;52.172;10.548;2022-10-29T15:08:54;19.17;;;4.82;;
53062;SDS011;40529;52.172;10.548;2022-10-29T15:14:23;14.13;;;4.75;;
53062;SDS011;40529;52.172;10.548;2022-10-29T15:16:49;10.90;;;4.55;;
53062;SDS011;40529;52.172;10.548;2022-10-29T15:19:15;13.40;;;5.45;;
53062;SDS011;40529;52.172;10.548;2022-10-29T15:21:42;12.13;;;4.30;;
53062;SDS011;40529;52.172;10.548;2022-10-29T15:24:09;10.13;;;4.97;;
53062;SDS011;40529;52.172;10.548;2022-10-29T15:26:44;10.23;;;4.23;;
53062;SDS011;40529;52.172;10.548;2022-10-29T15:29:12;9.55;;;4.22;;
53062;SDS011;40529;52.172;10.548;2022-10-29T15:31:42;14.57;;;4.70;;
53062;SDS011;40529;52.172;10.548;2022-10-29T15:34:12;9.82;;;4.40;;
53062;SDS011;40529;52.172;10.548;2022-10-29T15:36:43;10.52;;;4.95;;
53062;SDS011;40529;52.172;10.548;2022-10-29T15:39:28;14.40;;;6.47;;
53062;SDS011;40529;52.172;10.548;2022-10-29T15:42:06;18.65;;;7.30;;
53062;SDS011;40529;52.172;10.548;2022-10-29T15:44:45;13.90;;;6.20;;
53062;SDS011;40529;52.172;10.548;2022-10-29T15:47:27;12.75;;;5.90;;
53062;SDS011;40529;52.172;10.548;2022-10-29T15:49:53;12.43;;;6.40;;
53062;SDS011;40529;52.172;10.548;2022-10-29T15:52:20;14.77;;;7.22;;
53062;SDS011;40529;52.172;10.548;2022-10-29T15:54:48;11.80;;;7.05;;
53062;SDS011;40529;52.172;10.548;2022-10-29T15:57:14;13.63;;;6.60;;
53062;SDS011;40529;52.172;10.548;2022-10-29T15:59:41;12.88;;;6.90;;
53062;SDS011;40529;52.172;10.548;2022-10-29T16:02:11;13.13;;;6.70;;
53062;SDS011;40529;52.172;10.548;2022-10-29T16:04:37;11.10;;;6.28;;
53062;SDS011;40529;52.172;10.548;2022-10-29T16:07:04;15.43;;;6.47;;
53062;SDS011;40529;52.172;10.548;2022-10-29T16:09:30;14.77;;;6.75;;
53062;SDS011;40529;52.172;10.548;2022-10-29T16:11:56;14.00;;;6.40;;
53062;SDS011;40529;52.172;10.548;2022-10-29T16:14:22;11.45;;;6.00;;
53062;SDS011;40529;52.172;10.548;2022-10-29T16:16:48;13.82;;;6.00;;
53062;SDS011;40529;52.172;10.548;2022-10-29T16:19:14;16.30;;;6.65;;
53062;SDS011;40529;52.172;10.548;2022-10-29T16:21:40;15.77;;;6.93;;
53062;SDS011;40529;52.172;10.548;2022-10-29T16:24:09;15.23;;;5.97;;
53062;SDS011;40529;52.172;10.548;2022-10-29T16:26:36;19.10;;;8.70;;
53062;SDS011;40529;52.172;10.548;2022-10-29T16:29:02;15.63;;;9.07;;
53062;SDS011;40529;52.172;10.548;2022-10-29T16:31:28;22.27;;;10.40;;
53062;SDS011;40529;52.172;10.548;2022-10-29T16:33:58;22.05;;;9.90;;
53062;SDS011;40529;52.172;10.548;2022-10-29T16:36:25;19.60;;;10.07;;
53062;SDS011;40529;52.172;10.548;2022-10-29T16:38:51;19.27;;;10.05;;
53062;SDS011;40529;52.172;10.548;2022-10-29T16:41:17;21.48;;;10.68;;
53062;SDS011;40529;52.172;10.548;2022-10-29T16:43:44;18.90;;;10.30;;
53062;SDS011;40529;52.172;10.548;2022-10-29T16:46:11;19.58;;;11.10;;
53062;SDS011;40529;52.172;10.548;2022-10-29T16:48:37;20.05;;;9.80;;
53062;SDS011;40529;52.172;10.548;2022-10-29T16:51:04;27.65;;;15.63;;
53062;SDS011;40529;52.172;10.548;2022-10-29T16:53:30;21.77;;;12.40;;
53062;SDS011;40529;52.172;10.548;2022-10-29T16:55:56;18.25;;;11.20;;
53062;SDS011;40529;52.172;10.548;2022-10-29T16:58:22;19.90;;;10.50;;